You are not logged in, Click here to log in
ICAO: ZSAM Country: 中國福建省廈門島東北端
Latitude: 24.5391 Longitude: 118.134
Total Arrivals: 49 Total Departures: 44
Latest Arrival: CZ6231 (ZHCC-ZSAM)CHU. CHUHAO Latest Departure: F8M63 (ZSAM-RCKH)CHU. CHUHAO
Scenery:
METAR : ZSAM 231800Z 21002MPS 150V240 9999 SCT023 27/26 Q1007 NOSIG

廈門高崎國際機場XMN